Bowmanville, Canada
Current Conditions -  °F | °C
As of 12:00 AM on Sunday 23 Nov 2014 (Local Time) from CYOO Reporting Station
Haze Haze  
Wind Chill: 36°   Ceiling: 300
Heat Index: 41°   Visibility: 1.5mi
Dew Point: 41°   Wind: 7mph
Humidity: 100%   Direction: 220°SW
Pressure: 29.93"   Gusts: NA
Location:  43.91°N, 78.69°W
Report Text: CYOO 230500Z AUTO 22006KT 1 1/2SM BR OVC003 05/05 A2993 RMK SLP141
Loading
Personal Weather Stations






























Interactive Weather Map New forecast layout! Learn more

10-Day Weather Forecast

Advertisements
Track Severe Weather on mobile